sensor_id;sensor_type;location;lat;lon;timestamp;P1;durP1;ratioP1;P2;durP2;ratioP2
52786;SDS011;38661;53.152;5.846;2024-02-14T00:00:06;17.42;;;11.02;;
52786;SDS011;38661;53.152;5.846;2024-02-14T00:02:45;14.20;;;11.80;;
52786;SDS011;38661;53.152;5.846;2024-02-14T00:05:14;16.95;;;11.93;;
52786;SDS011;38661;53.152;5.846;2024-02-14T00:07:40;15.23;;;11.10;;
52786;SDS011;38661;53.152;5.846;2024-02-14T00:10:06;15.27;;;11.32;;
52786;SDS011;38661;53.152;5.846;2024-02-14T00:12:33;18.05;;;12.70;;
52786;SDS011;38661;53.152;5.846;2024-02-14T00:15:00;15.52;;;12.20;;
52786;SDS011;38661;53.152;5.846;2024-02-14T00:17:31;18.90;;;12.52;;
52786;SDS011;38661;53.152;5.846;2024-02-14T00:19:56;16.88;;;13.38;;
52786;SDS011;38661;53.152;5.846;2024-02-14T00:22:23;15.82;;;12.20;;
52786;SDS011;38661;53.152;5.846;2024-02-14T00:24:49;15.05;;;13.15;;
52786;SDS011;38661;53.152;5.846;2024-02-14T00:27:15;16.75;;;13.30;;
52786;SDS011;38661;53.152;5.846;2024-02-14T00:29:40;16.90;;;12.73;;
52786;SDS011;38661;53.152;5.846;2024-02-14T00:32:10;18.98;;;12.95;;
52786;SDS011;38661;53.152;5.846;2024-02-14T00:34:36;16.35;;;13.48;;
52786;SDS011;38661;53.152;5.846;2024-02-14T00:37:02;17.75;;;13.93;;
52786;SDS011;38661;53.152;5.846;2024-02-14T00:39:28;17.17;;;13.48;;
52786;SDS011;38661;53.152;5.846;2024-02-14T00:41:54;16.05;;;13.63;;
52786;SDS011;38661;53.152;5.846;2024-02-14T00:44:21;18.63;;;14.18;;
52786;SDS011;38661;53.152;5.846;2024-02-14T00:46:47;17.65;;;13.85;;
52786;SDS011;38661;53.152;5.846;2024-02-14T00:49:13;16.20;;;13.68;;
52786;SDS011;38661;53.152;5.846;2024-02-14T00:51:39;16.60;;;13.63;;
52786;SDS011;38661;53.152;5.846;2024-02-14T00:54:08;16.13;;;13.38;;
52786;SDS011;38661;53.152;5.846;2024-02-14T00:56:34;17.02;;;13.82;;
52786;SDS011;38661;53.152;5.846;2024-02-14T00:59:00;15.20;;;12.73;;
52786;SDS011;38661;53.152;5.846;2024-02-14T01:01:26;14.70;;;12.45;;
52786;SDS011;38661;53.152;5.846;2024-02-14T01:03:52;16.60;;;12.90;;
52786;SDS011;38661;53.152;5.846;2024-02-14T01:06:17;15.93;;;12.63;;
52786;SDS011;38661;53.152;5.846;2024-02-14T01:08:45;13.90;;;11.77;;
52786;SDS011;38661;53.152;5.846;2024-02-14T01:11:10;13.30;;;11.90;;
52786;SDS011;38661;53.152;5.846;2024-02-14T01:13:36;16.10;;;12.45;;
52786;SDS011;38661;53.152;5.846;2024-02-14T01:16:02;12.98;;;11.60;;
52786;SDS011;38661;53.152;5.846;2024-02-14T01:18:29;13.45;;;11.68;;
52786;SDS011;38661;53.152;5.846;2024-02-14T01:20:55;14.38;;;12.07;;
52786;SDS011;38661;53.152;5.846;2024-02-14T01:23:20;13.85;;;11.45;;
52786;SDS011;38661;53.152;5.846;2024-02-14T01:25:46;14.73;;;12.10;;
52786;SDS011;38661;53.152;5.846;2024-02-14T01:28:12;14.10;;;12.23;;
52786;SDS011;38661;53.152;5.846;2024-02-14T01:30:37;11.48;;;10.05;;
52786;SDS011;38661;53.152;5.846;2024-02-14T01:33:03;14.55;;;12.13;;
52786;SDS011;38661;53.152;5.846;2024-02-14T01:35:32;13.00;;;10.85;;
52786;SDS011;38661;53.152;5.846;2024-02-14T01:37:58;13.50;;;11.25;;
52786;SDS011;38661;53.152;5.846;2024-02-14T01:40:23;16.50;;;12.07;;
52786;SDS011;38661;53.152;5.846;2024-02-14T01:42:49;13.98;;;11.15;;
52786;SDS011;38661;53.152;5.846;2024-02-14T01:45:16;15.88;;;12.93;;
52786;SDS011;38661;53.152;5.846;2024-02-14T01:47:42;15.57;;;12.77;;
52786;SDS011;38661;53.152;5.846;2024-02-14T01:50:08;11.50;;;10.25;;
52786;SDS011;38661;53.152;5.846;2024-02-14T01:52:37;13.68;;;11.57;;
52786;SDS011;38661;53.152;5.846;2024-02-14T01:55:04;14.50;;;11.27;;
52786;SDS011;38661;53.152;5.846;2024-02-14T01:57:31;17.20;;;13.48;;
52786;SDS011;38661;53.152;5.846;2024-02-14T01:59:58;16.42;;;12.40;;
52786;SDS011;38661;53.152;5.846;2024-02-14T02:02:29;14.93;;;11.70;;
52786;SDS011;38661;53.152;5.846;2024-02-14T02:04:55;15.70;;;11.80;;
52786;SDS011;38661;53.152;5.846;2024-02-14T02:07:21;17.05;;;13.98;;
52786;SDS011;38661;53.152;5.846;2024-02-14T02:09:46;14.02;;;11.85;;
52786;SDS011;38661;53.152;5.846;2024-02-14T02:12:12;14.60;;;11.82;;
52786;SDS011;38661;53.152;5.846;2024-02-14T02:14:38;15.68;;;13.02;;
52786;SDS011;38661;53.152;5.846;2024-02-14T02:17:06;16.58;;;13.10;;
52786;SDS011;38661;53.152;5.846;2024-02-14T02:19:34;19.90;;;14.73;;
52786;SDS011;38661;53.152;5.846;2024-02-14T02:22:01;16.25;;;13.10;;
52786;SDS011;38661;53.152;5.846;2024-02-14T02:24:26;17.70;;;13.48;;
52786;SDS011;38661;53.152;5.846;2024-02-14T02:26:52;19.20;;;13.95;;
52786;SDS011;38661;53.152;5.846;2024-02-14T02:29:18;17.65;;;13.88;;
52786;SDS011;38661;53.152;5.846;2024-02-14T02:31:44;19.15;;;15.00;;
52786;SDS011;38661;53.152;5.846;2024-02-14T02:34:11;17.27;;;13.25;;
52786;SDS011;38661;53.152;5.846;2024-02-14T02:36:37;17.55;;;14.55;;
52786;SDS011;38661;53.152;5.846;2024-02-14T02:39:04;18.83;;;12.60;;
52786;SDS011;38661;53.152;5.846;2024-02-14T02:41:30;19.95;;;14.75;;
52786;SDS011;38661;53.152;5.846;2024-02-14T02:43:58;19.48;;;14.82;;
52786;SDS011;38661;53.152;5.846;2024-02-14T02:46:24;18.88;;;14.98;;
52786;SDS011;38661;53.152;5.846;2024-02-14T02:48:51;21.23;;;16.02;;
52786;SDS011;38661;53.152;5.846;2024-02-14T02:51:19;15.75;;;12.35;;
52786;SDS011;38661;53.152;5.846;2024-02-14T02:53:46;17.80;;;13.05;;
52786;SDS011;38661;53.152;5.846;2024-02-14T02:56:12;16.58;;;12.70;;
52786;SDS011;38661;53.152;5.846;2024-02-14T02:58:40;18.88;;;12.23;;
52786;SDS011;38661;53.152;5.846;2024-02-14T03:01:08;13.45;;;11.07;;
52786;SDS011;38661;53.152;5.846;2024-02-14T03:03:35;10.40;;;8.00;;
52786;SDS011;38661;53.152;5.846;2024-02-14T03:06:01;16.80;;;11.60;;
52786;SDS011;38661;53.152;5.846;2024-02-14T03:08:29;16.00;;;11.65;;
52786;SDS011;38661;53.152;5.846;2024-02-14T03:10:55;17.02;;;12.10;;
52786;SDS011;38661;53.152;5.846;2024-02-14T03:13:24;16.50;;;12.32;;
52786;SDS011;38661;53.152;5.846;2024-02-14T03:15:51;15.02;;;11.23;;
52786;SDS011;38661;53.152;5.846;2024-02-14T03:18:17;15.13;;;10.65;;
52786;SDS011;38661;53.152;5.846;2024-02-14T03:20:43;14.35;;;9.32;;
52786;SDS011;38661;53.152;5.846;2024-02-14T03:23:09;12.15;;;9.70;;
52786;SDS011;38661;53.152;5.846;2024-02-14T03:25:35;12.52;;;9.07;;
52786;SDS011;38661;53.152;5.846;2024-02-14T03:28:02;15.35;;;10.43;;
52786;SDS011;38661;53.152;5.846;2024-02-14T03:30:34;14.27;;;10.77;;
52786;SDS011;38661;53.152;5.846;2024-02-14T03:33:00;13.68;;;9.90;;
52786;SDS011;38661;53.152;5.846;2024-02-14T03:35:26;17.02;;;11.50;;
52786;SDS011;38661;53.152;5.846;2024-02-14T03:37:52;15.77;;;11.75;;
52786;SDS011;38661;53.152;5.846;2024-02-14T03:40:18;16.45;;;10.23;;
52786;SDS011;38661;53.152;5.846;2024-02-14T03:42:47;18.75;;;10.18;;
52786;SDS011;38661;53.152;5.846;2024-02-14T03:45:13;12.15;;;9.52;;
52786;SDS011;38661;53.152;5.846;2024-02-14T03:47:39;20.95;;;10.95;;
52786;SDS011;38661;53.152;5.846;2024-02-14T03:50:06;19.23;;;10.68;;
52786;SDS011;38661;53.152;5.846;2024-02-14T03:52:33;15.52;;;9.68;;
52786;SDS011;38661;53.152;5.846;2024-02-14T03:54:59;19.90;;;10.55;;
52786;SDS011;38661;53.152;5.846;2024-02-14T03:57:25;19.50;;;10.27;;
52786;SDS011;38661;53.152;5.846;2024-02-14T03:59:54;17.27;;;9.05;;
52786;SDS011;38661;53.152;5.846;2024-02-14T04:02:21;14.50;;;9.05;;
52786;SDS011;38661;53.152;5.846;2024-02-14T04:04:48;16.35;;;8.40;;
52786;SDS011;38661;53.152;5.846;2024-02-14T04:07:14;13.70;;;8.57;;
52786;SDS011;38661;53.152;5.846;2024-02-14T04:09:40;17.00;;;9.25;;
52786;SDS011;38661;53.152;5.846;2024-02-14T04:12:06;14.32;;;7.85;;
52786;SDS011;38661;53.152;5.846;2024-02-14T04:14:34;19.98;;;9.63;;
52786;SDS011;38661;53.152;5.846;2024-02-14T04:17:00;12.30;;;7.20;;
52786;SDS011;38661;53.152;5.846;2024-02-14T04:19:26;14.80;;;6.97;;
52786;SDS011;38661;53.152;5.846;2024-02-14T04:21:53;13.88;;;7.88;;
52786;SDS011;38661;53.152;5.846;2024-02-14T04:24:19;19.70;;;9.65;;
52786;SDS011;38661;53.152;5.846;2024-02-14T04:26:45;14.55;;;8.50;;
52786;SDS011;38661;53.152;5.846;2024-02-14T04:29:10;27.00;;;10.75;;
52786;SDS011;38661;53.152;5.846;2024-02-14T04:31:36;21.45;;;8.80;;
52786;SDS011;38661;53.152;5.846;2024-02-14T04:34:02;21.35;;;8.60;;
52786;SDS011;38661;53.152;5.846;2024-02-14T04:36:28;23.13;;;10.43;;
52786;SDS011;38661;53.152;5.846;2024-02-14T04:38:55;19.63;;;8.93;;
52786;SDS011;38661;53.152;5.846;2024-02-14T04:41:22;20.02;;;10.40;;
52786;SDS011;38661;53.152;5.846;2024-02-14T04:43:48;25.38;;;10.40;;
52786;SDS011;38661;53.152;5.846;2024-02-14T04:46:14;28.90;;;10.38;;
52786;SDS011;38661;53.152;5.846;2024-02-14T04:48:39;19.02;;;9.20;;
52786;SDS011;38661;53.152;5.846;2024-02-14T04:51:05;20.60;;;8.52;;
52786;SDS011;38661;53.152;5.846;2024-02-14T04:53:31;23.42;;;9.70;;
52786;SDS011;38661;53.152;5.846;2024-02-14T04:55:57;27.65;;;11.50;;
52786;SDS011;38661;53.152;5.846;2024-02-14T04:58:23;30.42;;;11.70;;
52786;SDS011;38661;53.152;5.846;2024-02-14T05:00:48;28.95;;;11.25;;
52786;SDS011;38661;53.152;5.846;2024-02-14T05:03:14;24.13;;;9.32;;
52786;SDS011;38661;53.152;5.846;2024-02-14T05:05:41;25.55;;;10.63;;
52786;SDS011;38661;53.152;5.846;2024-02-14T05:08:06;26.13;;;10.23;;
52786;SDS011;38661;53.152;5.846;2024-02-14T05:10:32;23.65;;;9.07;;
52786;SDS011;38661;53.152;5.846;2024-02-14T05:12:58;23.63;;;8.50;;
52786;SDS011;38661;53.152;5.846;2024-02-14T05:15:24;23.10;;;8.55;;
52786;SDS011;38661;53.152;5.846;2024-02-14T05:17:49;25.98;;;10.70;;
52786;SDS011;38661;53.152;5.846;2024-02-14T05:20:16;27.20;;;8.98;;
52786;SDS011;38661;53.152;5.846;2024-02-14T05:22:42;31.70;;;9.60;;
52786;SDS011;38661;53.152;5.846;2024-02-14T05:25:08;40.67;;;11.65;;
52786;SDS011;38661;53.152;5.846;2024-02-14T05:27:34;41.65;;;12.13;;
52786;SDS011;38661;53.152;5.846;2024-02-14T05:30:01;43.10;;;11.82;;
52786;SDS011;38661;53.152;5.846;2024-02-14T05:32:30;49.00;;;10.38;;
52786;SDS011;38661;53.152;5.846;2024-02-14T05:34:59;45.47;;;9.95;;
52786;SDS011;38661;53.152;5.846;2024-02-14T05:37:25;46.33;;;10.43;;
52786;SDS011;38661;53.152;5.846;2024-02-14T05:39:52;36.95;;;9.07;;
52786;SDS011;38661;53.152;5.846;2024-02-14T05:42:19;45.50;;;10.05;;
52786;SDS011;38661;53.152;5.846;2024-02-14T05:44:45;41.10;;;7.85;;
52786;SDS011;38661;53.152;5.846;2024-02-14T05:47:11;44.47;;;8.82;;
52786;SDS011;38661;53.152;5.846;2024-02-14T05:49:40;42.60;;;11.55;;
52786;SDS011;38661;53.152;5.846;2024-02-14T05:52:06;45.53;;;9.55;;
52786;SDS011;38661;53.152;5.846;2024-02-14T05:54:33;42.35;;;8.05;;
52786;SDS011;38661;53.152;5.846;2024-02-14T05:56:58;42.28;;;10.10;;
52786;SDS011;38661;53.152;5.846;2024-02-14T05:59:24;50.53;;;11.27;;
52786;SDS011;38661;53.152;5.846;2024-02-14T06:01:50;59.33;;;9.90;;
52786;SDS011;38661;53.152;5.846;2024-02-14T06:04:16;45.22;;;9.85;;
52786;SDS011;38661;53.152;5.846;2024-02-14T06:06:41;49.17;;;10.02;;
52786;SDS011;38661;53.152;5.846;2024-02-14T06:09:07;58.78;;;10.27;;
52786;SDS011;38661;53.152;5.846;2024-02-14T06:11:36;48.38;;;10.82;;
52786;SDS011;38661;53.152;5.846;2024-02-14T06:14:04;44.97;;;10.82;;
52786;SDS011;38661;53.152;5.846;2024-02-14T06:16:31;40.72;;;10.00;;
52786;SDS011;38661;53.152;5.846;2024-02-14T06:18:57;50.92;;;10.38;;
52786;SDS011;38661;53.152;5.846;2024-02-14T06:21:23;48.63;;;9.85;;
52786;SDS011;38661;53.152;5.846;2024-02-14T06:23:50;46.97;;;10.07;;
52786;SDS011;38661;53.152;5.846;2024-02-14T06:26:16;50.45;;;8.88;;
52786;SDS011;38661;53.152;5.846;2024-02-14T06:28:43;54.17;;;9.27;;
52786;SDS011;38661;53.152;5.846;2024-02-14T06:31:09;43.40;;;9.40;;
52786;SDS011;38661;53.152;5.846;2024-02-14T06:33:35;55.88;;;10.32;;
52786;SDS011;38661;53.152;5.846;2024-02-14T06:36:01;67.05;;;10.82;;
52786;SDS011;38661;53.152;5.846;2024-02-14T06:38:27;52.00;;;10.02;;
52786;SDS011;38661;53.152;5.846;2024-02-14T06:40:52;50.08;;;11.00;;
52786;SDS011;38661;53.152;5.846;2024-02-14T06:43:18;49.35;;;9.27;;
52786;SDS011;38661;53.152;5.846;2024-02-14T06:45:45;49.00;;;9.55;;
52786;SDS011;38661;53.152;5.846;2024-02-14T06:48:11;43.15;;;10.68;;
52786;SDS011;38661;53.152;5.846;2024-02-14T06:50:36;49.00;;;9.93;;
52786;SDS011;38661;53.152;5.846;2024-02-14T06:53:02;54.95;;;11.32;;
52786;SDS011;38661;53.152;5.846;2024-02-14T06:55:28;37.83;;;8.60;;
52786;SDS011;38661;53.152;5.846;2024-02-14T06:57:57;76.35;;;14.85;;
52786;SDS011;38661;53.152;5.846;2024-02-14T07:00:24;44.80;;;8.90;;
52786;SDS011;38661;53.152;5.846;2024-02-14T07:02:50;50.13;;;9.88;;
52786;SDS011;38661;53.152;5.846;2024-02-14T07:05:15;56.20;;;11.88;;
52786;SDS011;38661;53.152;5.846;2024-02-14T07:07:41;51.22;;;11.98;;
52786;SDS011;38661;53.152;5.846;2024-02-14T07:10:07;39.03;;;9.23;;
52786;SDS011;38661;53.152;5.846;2024-02-14T07:12:33;50.78;;;10.90;;
52786;SDS011;38661;53.152;5.846;2024-02-14T07:15:01;43.60;;;9.15;;
52786;SDS011;38661;53.152;5.846;2024-02-14T07:17:29;49.42;;;10.73;;
52786;SDS011;38661;53.152;5.846;2024-02-14T07:19:55;52.42;;;12.23;;
52786;SDS011;38661;53.152;5.846;2024-02-14T07:22:21;53.20;;;9.75;;
52786;SDS011;38661;53.152;5.846;2024-02-14T07:24:47;45.25;;;9.45;;
52786;SDS011;38661;53.152;5.846;2024-02-14T07:27:13;39.10;;;8.75;;
52786;SDS011;38661;53.152;5.846;2024-02-14T07:29:39;56.63;;;10.75;;
52786;SDS011;38661;53.152;5.846;2024-02-14T07:32:05;51.17;;;10.02;;
52786;SDS011;38661;53.152;5.846;2024-02-14T07:34:31;45.97;;;9.82;;
52786;SDS011;38661;53.152;5.846;2024-02-14T07:36:57;53.60;;;11.25;;
52786;SDS011;38661;53.152;5.846;2024-02-14T07:39:23;38.72;;;9.65;;
52786;SDS011;38661;53.152;5.846;2024-02-14T07:41:50;48.15;;;9.68;;
52786;SDS011;38661;53.152;5.846;2024-02-14T07:44:15;59.72;;;10.45;;
52786;SDS011;38661;53.152;5.846;2024-02-14T07:46:41;49.58;;;9.52;;
52786;SDS011;38661;53.152;5.846;2024-02-14T07:49:07;39.60;;;9.77;;
52786;SDS011;38661;53.152;5.846;2024-02-14T07:51:34;45.15;;;10.25;;
52786;SDS011;38661;53.152;5.846;2024-02-14T07:54:05;43.42;;;10.43;;
52786;SDS011;38661;53.152;5.846;2024-02-14T07:56:31;49.15;;;11.57;;
52786;SDS011;38661;53.152;5.846;2024-02-14T07:58:57;56.10;;;10.57;;
52786;SDS011;38661;53.152;5.846;2024-02-14T08:01:23;55.47;;;11.70;;
52786;SDS011;38661;53.152;5.846;2024-02-14T08:03:50;44.50;;;10.73;;
52786;SDS011;38661;53.152;5.846;2024-02-14T08:06:15;58.17;;;12.27;;
52786;SDS011;38661;53.152;5.846;2024-02-14T08:08:41;59.03;;;12.85;;
52786;SDS011;38661;53.152;5.846;2024-02-14T08:11:09;51.83;;;10.63;;
52786;SDS011;38661;53.152;5.846;2024-02-14T08:13:34;42.17;;;10.77;;
52786;SDS011;38661;53.152;5.846;2024-02-14T08:16:02;49.05;;;12.43;;
52786;SDS011;38661;53.152;5.846;2024-02-14T08:18:27;52.05;;;11.32;;
52786;SDS011;38661;53.152;5.846;2024-02-14T08:20:53;52.95;;;12.18;;
52786;SDS011;38661;53.152;5.846;2024-02-14T08:23:19;43.05;;;10.95;;
52786;SDS011;38661;53.152;5.846;2024-02-14T08:25:48;50.55;;;12.48;;
52786;SDS011;38661;53.152;5.846;2024-02-14T08:28:14;49.17;;;11.40;;
52786;SDS011;38661;53.152;5.846;2024-02-14T08:30:40;45.38;;;11.35;;
52786;SDS011;38661;53.152;5.846;2024-02-14T08:33:06;53.38;;;12.25;;
52786;SDS011;38661;53.152;5.846;2024-02-14T08:35:32;49.25;;;13.68;;
52786;SDS011;38661;53.152;5.846;2024-02-14T08:37:58;37.15;;;10.82;;
52786;SDS011;38661;53.152;5.846;2024-02-14T08:40:24;49.00;;;14.25;;
52786;SDS011;38661;53.152;5.846;2024-02-14T08:42:50;49.10;;;13.27;;
52786;SDS011;38661;53.152;5.846;2024-02-14T08:45:16;49.53;;;12.45;;
52786;SDS011;38661;53.152;5.846;2024-02-14T08:47:43;47.75;;;12.48;;
52786;SDS011;38661;53.152;5.846;2024-02-14T08:50:09;48.00;;;13.15;;
52786;SDS011;38661;53.152;5.846;2024-02-14T08:52:35;49.65;;;13.50;;
52786;SDS011;38661;53.152;5.846;2024-02-14T08:55:03;41.28;;;11.32;;
52786;SDS011;38661;53.152;5.846;2024-02-14T08:57:29;41.13;;;11.00;;
52786;SDS011;38661;53.152;5.846;2024-02-14T08:59:56;57.78;;;13.65;;
52786;SDS011;38661;53.152;5.846;2024-02-14T09:02:22;51.65;;;13.77;;
52786;SDS011;38661;53.152;5.846;2024-02-14T09:04:48;49.63;;;13.38;;
52786;SDS011;38661;53.152;5.846;2024-02-14T09:07:14;50.13;;;13.38;;
52786;SDS011;38661;53.152;5.846;2024-02-14T09:09:41;49.00;;;12.13;;
52786;SDS011;38661;53.152;5.846;2024-02-14T09:12:06;35.67;;;11.85;;
52786;SDS011;38661;53.152;5.846;2024-02-14T09:14:32;40.72;;;11.88;;
52786;SDS011;38661;53.152;5.846;2024-02-14T09:16:58;42.17;;;11.65;;
52786;SDS011;38661;53.152;5.846;2024-02-14T09:19:24;37.35;;;11.13;;
52786;SDS011;38661;53.152;5.846;2024-02-14T09:21:52;33.92;;;11.73;;
52786;SDS011;38661;53.152;5.846;2024-02-14T09:24:17;35.17;;;11.48;;
52786;SDS011;38661;53.152;5.846;2024-02-14T09:26:43;47.33;;;11.57;;
52786;SDS011;38661;53.152;5.846;2024-02-14T09:29:09;32.80;;;10.23;;
52786;SDS011;38661;53.152;5.846;2024-02-14T09:31:37;31.70;;;10.38;;
52786;SDS011;38661;53.152;5.846;2024-02-14T09:34:06;35.05;;;10.20;;
52786;SDS011;38661;53.152;5.846;2024-02-14T09:36:36;36.42;;;10.23;;
52786;SDS011;38661;53.152;5.846;2024-02-14T09:39:01;29.85;;;10.40;;
52786;SDS011;38661;53.152;5.846;2024-02-14T09:41:37;36.35;;;11.43;;
52786;SDS011;38661;53.152;5.846;2024-02-14T09:44:08;35.53;;;11.30;;
52786;SDS011;38661;53.152;5.846;2024-02-14T09:46:35;34.63;;;10.68;;
52786;SDS011;38661;53.152;5.846;2024-02-14T09:49:02;36.50;;;12.25;;
52786;SDS011;38661;53.152;5.846;2024-02-14T09:51:29;32.90;;;11.25;;
52786;SDS011;38661;53.152;5.846;2024-02-14T09:53:55;26.05;;;10.85;;
52786;SDS011;38661;53.152;5.846;2024-02-14T09:56:24;30.98;;;12.68;;
52786;SDS011;38661;53.152;5.846;2024-02-14T09:58:50;29.35;;;10.30;;
52786;SDS011;38661;53.152;5.846;2024-02-14T10:01:24;21.50;;;9.63;;
52786;SDS011;38661;53.152;5.846;2024-02-14T10:03:53;38.67;;;12.20;;
52786;SDS011;38661;53.152;5.846;2024-02-14T10:06:20;26.38;;;9.68;;
52786;SDS011;38661;53.152;5.846;2024-02-14T10:08:50;31.27;;;11.13;;
52786;SDS011;38661;53.152;5.846;2024-02-14T10:11:16;31.70;;;11.35;;
52786;SDS011;38661;53.152;5.846;2024-02-14T10:13:49;27.73;;;10.57;;
52786;SDS011;38661;53.152;5.846;2024-02-14T10:16:17;28.85;;;10.60;;
52786;SDS011;38661;53.152;5.846;2024-02-14T10:18:44;28.30;;;10.50;;
52786;SDS011;38661;53.152;5.846;2024-02-14T10:21:15;30.33;;;11.40;;
52786;SDS011;38661;53.152;5.846;2024-02-14T10:23:43;29.88;;;12.27;;
52786;SDS011;38661;53.152;5.846;2024-02-14T10:26:11;33.58;;;12.25;;
52786;SDS011;38661;53.152;5.846;2024-02-14T10:28:42;33.40;;;13.10;;
52786;SDS011;38661;53.152;5.846;2024-02-14T10:31:09;33.08;;;13.77;;
52786;SDS011;38661;53.152;5.846;2024-02-14T10:33:35;38.78;;;15.32;;
52786;SDS011;38661;53.152;5.846;2024-02-14T10:36:01;43.20;;;15.18;;
52786;SDS011;38661;53.152;5.846;2024-02-14T10:38:31;39.92;;;14.30;;
52786;SDS011;38661;53.152;5.846;2024-02-14T10:41:01;41.28;;;14.82;;
52786;SDS011;38661;53.152;5.846;2024-02-14T10:43:27;38.67;;;14.73;;
52786;SDS011;38661;53.152;5.846;2024-02-14T10:45:54;30.00;;;13.35;;
52786;SDS011;38661;53.152;5.846;2024-02-14T10:48:22;45.08;;;14.40;;
52786;SDS011;38661;53.152;5.846;2024-02-14T10:50:50;38.15;;;13.18;;
52786;SDS011;38661;53.152;5.846;2024-02-14T10:53:18;30.42;;;13.00;;
52786;SDS011;38661;53.152;5.846;2024-02-14T10:55:46;25.60;;;11.48;;
52786;SDS011;38661;53.152;5.846;2024-02-14T10:58:14;30.27;;;13.10;;
52786;SDS011;38661;53.152;5.846;2024-02-14T11:00:42;29.80;;;13.38;;
52786;SDS011;38661;53.152;5.846;2024-02-14T11:03:09;33.60;;;13.75;;
52786;SDS011;38661;53.152;5.846;2024-02-14T11:05:45;25.75;;;12.60;;
52786;SDS011;38661;53.152;5.846;2024-02-14T11:08:18;30.30;;;11.75;;
52786;SDS011;38661;53.152;5.846;2024-02-14T11:10:55;29.17;;;11.85;;
52786;SDS011;38661;53.152;5.846;2024-02-14T11:13:21;18.63;;;9.93;;
52786;SDS011;38661;53.152;5.846;2024-02-14T11:16:01;19.88;;;10.20;;
52786;SDS011;38661;53.152;5.846;2024-02-14T11:18:27;24.70;;;10.70;;
52786;SDS011;38661;53.152;5.846;2024-02-14T11:20:58;18.63;;;9.60;;
52786;SDS011;38661;53.152;5.846;2024-02-14T11:23:24;21.15;;;10.10;;
52786;SDS011;38661;53.152;5.846;2024-02-14T11:25:59;16.38;;;8.05;;
52786;SDS011;38661;53.152;5.846;2024-02-14T11:28:29;22.35;;;8.98;;
52786;SDS011;38661;53.152;5.846;2024-02-14T11:30:58;19.77;;;9.27;;
52786;SDS011;38661;53.152;5.846;2024-02-14T11:33:28;22.13;;;9.95;;
52786;SDS011;38661;53.152;5.846;2024-02-14T11:35:55;22.95;;;9.50;;
52786;SDS011;38661;53.152;5.846;2024-02-14T11:38:22;21.67;;;8.45;;
52786;SDS011;38661;53.152;5.846;2024-02-14T11:40:55;24.50;;;10.50;;
52786;SDS011;38661;53.152;5.846;2024-02-14T11:43:24;25.98;;;12.05;;
52786;SDS011;38661;53.152;5.846;2024-02-14T11:45:50;22.73;;;11.07;;
52786;SDS011;38661;53.152;5.846;2024-02-14T11:48:18;20.55;;;11.48;;
52786;SDS011;38661;53.152;5.846;2024-02-14T11:50:48;20.48;;;9.75;;
52786;SDS011;38661;53.152;5.846;2024-02-14T11:53:16;18.92;;;12.25;;
52786;SDS011;38661;53.152;5.846;2024-02-14T11:55:44;20.08;;;11.75;;
52786;SDS011;38661;53.152;5.846;2024-02-14T11:58:12;20.70;;;12.02;;
52786;SDS011;38661;53.152;5.846;2024-02-14T12:00:42;25.83;;;12.30;;
52786;SDS011;38661;53.152;5.846;2024-02-14T12:03:16;19.85;;;11.02;;
52786;SDS011;38661;53.152;5.846;2024-02-14T12:05:42;18.45;;;11.75;;
52786;SDS011;38661;53.152;5.846;2024-02-14T12:08:09;20.67;;;12.25;;
52786;SDS011;38661;53.152;5.846;2024-02-14T12:10:35;19.25;;;12.18;;
52786;SDS011;38661;53.152;5.846;2024-02-14T12:13:06;17.42;;;11.82;;
52786;SDS011;38661;53.152;5.846;2024-02-14T12:15:40;20.88;;;11.07;;
52786;SDS011;38661;53.152;5.846;2024-02-14T12:18:07;19.48;;;12.95;;
52786;SDS011;38661;53.152;5.846;2024-02-14T12:20:34;14.32;;;9.95;;
52786;SDS011;38661;53.152;5.846;2024-02-14T12:23:01;21.52;;;13.10;;
52786;SDS011;38661;53.152;5.846;2024-02-14T12:25:27;17.98;;;10.10;;
52786;SDS011;38661;53.152;5.846;2024-02-14T12:27:53;18.90;;;11.93;;
52786;SDS011;38661;53.152;5.846;2024-02-14T12:30:22;18.75;;;10.52;;
52786;SDS011;38661;53.152;5.846;2024-02-14T12:33:00;17.27;;;10.90;;
52786;SDS011;38661;53.152;5.846;2024-02-14T12:35:33;16.65;;;10.25;;
52786;SDS011;38661;53.152;5.846;2024-02-14T12:38:00;18.55;;;12.88;;
52786;SDS011;38661;53.152;5.846;2024-02-14T12:40:26;19.95;;;12.68;;
52786;SDS011;38661;53.152;5.846;2024-02-14T12:42:54;22.25;;;12.88;;
52786;SDS011;38661;53.152;5.846;2024-02-14T12:45:20;23.45;;;13.90;;
52786;SDS011;38661;53.152;5.846;2024-02-14T12:47:45;25.20;;;13.48;;
52786;SDS011;38661;53.152;5.846;2024-02-14T12:50:11;19.23;;;12.52;;
52786;SDS011;38661;53.152;5.846;2024-02-14T12:52:37;22.50;;;13.75;;
52786;SDS011;38661;53.152;5.846;2024-02-14T12:55:02;24.98;;;14.30;;
52786;SDS011;38661;53.152;5.846;2024-02-14T12:57:28;25.20;;;14.35;;
52786;SDS011;38661;53.152;5.846;2024-02-14T12:59:54;19.25;;;13.05;;
52786;SDS011;38661;53.152;5.846;2024-02-14T13:02:20;21.20;;;12.45;;
52786;SDS011;38661;53.152;5.846;2024-02-14T13:04:46;25.40;;;13.95;;
52786;SDS011;38661;53.152;5.846;2024-02-14T13:07:11;23.73;;;14.93;;
52786;SDS011;38661;53.152;5.846;2024-02-14T13:09:37;27.83;;;15.93;;
52786;SDS011;38661;53.152;5.846;2024-02-14T13:12:03;25.27;;;15.90;;
52786;SDS011;38661;53.152;5.846;2024-02-14T13:14:32;27.63;;;16.08;;
52786;SDS011;38661;53.152;5.846;2024-02-14T13:16:58;27.27;;;15.43;;
52786;SDS011;38661;53.152;5.846;2024-02-14T13:19:23;26.55;;;16.55;;
52786;SDS011;38661;53.152;5.846;2024-02-14T13:21:49;23.92;;;14.73;;
52786;SDS011;38661;53.152;5.846;2024-02-14T13:24:15;24.65;;;15.20;;
52786;SDS011;38661;53.152;5.846;2024-02-14T13:26:40;27.60;;;15.45;;
52786;SDS011;38661;53.152;5.846;2024-02-14T13:29:06;33.03;;;17.77;;
52786;SDS011;38661;53.152;5.846;2024-02-14T13:31:32;31.10;;;20.15;;
52786;SDS011;38661;53.152;5.846;2024-02-14T13:33:58;27.63;;;18.42;;
52786;SDS011;38661;53.152;5.846;2024-02-14T13:36:23;23.52;;;16.48;;
52786;SDS011;38661;53.152;5.846;2024-02-14T13:38:49;25.40;;;15.35;;
52786;SDS011;38661;53.152;5.846;2024-02-14T13:41:15;25.13;;;16.02;;
52786;SDS011;38661;53.152;5.846;2024-02-14T13:43:41;21.02;;;13.85;;
52786;SDS011;38661;53.152;5.846;2024-02-14T13:46:07;16.35;;;12.70;;
52786;SDS011;38661;53.152;5.846;2024-02-14T13:48:34;15.95;;;10.75;;
52786;SDS011;38661;53.152;5.846;2024-02-14T13:51:00;14.90;;;10.35;;
52786;SDS011;38661;53.152;5.846;2024-02-14T13:53:27;12.27;;;8.20;;
52786;SDS011;38661;53.152;5.846;2024-02-14T13:55:52;10.52;;;7.13;;
52786;SDS011;38661;53.152;5.846;2024-02-14T13:58:18;10.45;;;7.18;;
52786;SDS011;38661;53.152;5.846;2024-02-14T14:00:44;11.40;;;7.75;;
52786;SDS011;38661;53.152;5.846;2024-02-14T14:03:10;8.90;;;6.45;;
52786;SDS011;38661;53.152;5.846;2024-02-14T14:05:36;12.20;;;7.63;;
52786;SDS011;38661;53.152;5.846;2024-02-14T14:08:02;11.20;;;7.90;;
52786;SDS011;38661;53.152;5.846;2024-02-14T14:10:28;11.77;;;8.68;;
52786;SDS011;38661;53.152;5.846;2024-02-14T14:12:54;11.93;;;9.02;;
52786;SDS011;38661;53.152;5.846;2024-02-14T14:15:20;11.75;;;8.73;;
52786;SDS011;38661;53.152;5.846;2024-02-14T14:17:49;12.73;;;9.07;;
52786;SDS011;38661;53.152;5.846;2024-02-14T14:20:15;10.95;;;8.65;;